Airfield :
LOGIN :

Register | Disclaimer

   EN    FR    IT 

 










Legend :    VFR   Marginal VFR   IFR   Intensive IFR   Very Intensive IFR
Visi :
Ceiling :
>= 8 km
>= 3000ft
5 to 8 km
1000 to 3000 ft
1500m to 5 km
500 to 1000 ft
800 to 1500m
200 to 500 ft
< 800m
< 200 ft
Symbols :   Thunderstorms  Fog  Heavy snow  Heavy precipitations  Wind > 20 kt
SIGMETs :     Misc.  Thunderstorms  Icing  Turbulence  Mountain Waves  Volcanic Ashes







- Airport Elevation : 1090 ft
- IATA code : CFE
- Download approach charts


LFLC - Clermont-Ferrand Auvergne

CURRENT METAR :
  • 160800Z AUTO 16003KT 7000 NSC 11/10 Q1018 NOSIG

EXPIRED METARs :
  • 160730Z AUTO 05003KT 5000 BR NSC 10/09 Q1018 NOSIG
  • 160700Z AUTO VRB03KT 6000 FEW011 09/09 Q1018 NOSIG
  • 160630Z AUTO 20003KT 6000 FEW003 09/08 Q1017 NOSIG
  • 160600Z AUTO 25003KT 5000 BR NSC 09/08 Q1017 NOSIG
  • 160530Z AUTO 33002KT 4200 1300 R26/P2400 R08/P2400 BR NSC 09/08 Q1017 BECMG 9999 NSW

TAF AMD TAF LFLC
Valid from the 16 at 05:00 until the 17 at 03:00 UTC


160540Z 1605/1703 VRB02KT CAVOK
TEMPO 1605/1606 0800 MIFG SCT003
TEMPO 1611/1616 18008KT
ATIS : +33 4 73 62 74 38
No reported NOTAMs for that airfield.



MET'MAP, your aeronautical weather chart ! - Copyright ORBIFLY December 2007 - Disclaimer

ORBIFLY MET'MAP TEAM :

Programming & Development : Alexandra Zaïnal
Concept & Development : Baudouin d'Aumeries
Co-Development & Prog : Marc-Olivier Méhu
Technical & hardware support : Manuel Goepfert

Contact : metmap@orbifly.com




SOURCES & CREDITS :

   NOAA